Terminal Aerodrome Forecast
Issued by NWS

Current Version | Previous Version | Text Only | Print | Product List | Glossary Off
Versions: 1 2 3 4 5 6 7 8 9 10 11 12 13 14 15

000
FTUS41 KPBZ 180834 AAA
TAFMGW
TAF AMD
KMGW 180834Z 1809/1906 18005KT P6SM VCSH OVC025
     FM181200 20003KT P6SM BKN010
     FM181800 24008KT P6SM -SHRA VCTS BKN040CB
     FM190000 25005KT P6SM BKN200=

USA.gov is the U.S. government's official web portal to all federal, state and local government web resources and services.